Time,TemperatureF,DewpointF,PressureIn,WindDirection,WindDirectionDegrees,WindSpeedMPH,WindSpeedGustMPH,Humidity,HourlyPrecipIn,Conditions,Clouds,dailyrainin,SolarRadiationWatts/m^2,SoftwareType,DateUTC
2013-11-30 00:01:00,28.2,23.1,30.45,SE,140,3.5,3.5,81,0.00,CLR,,0.00,0.0,WeatherDisplay:10.37,2013-11-30 06:01:00,
2013-11-30 00:06:00,28.1,23.0,30.45,SE,128,4.6,4.6,81,0.00,CLR,,0.00,0.0,WeatherDisplay:10.37,2013-11-30 06:06:00,
2013-11-30 00:11:00,28.1,23.0,30.45,SE,137,3.5,3.5,81,0.00,CLR,,0.00,0.0,WeatherDisplay:10.37,2013-11-30 06:11:00,
2013-11-30 00:16:00,28.1,23.0,30.45,SE,140,4.6,4.6,81,0.00,CLR,,0.00,0.0,WeatherDisplay:10.37,2013-11-30 06:16:00,
2013-11-30 00:21:00,28.1,23.0,30.45,SE,146,3.5,3.5,81,0.00,CLR,,0.00,0.0,WeatherDisplay:10.37,2013-11-30 06:21:00,
2013-11-30 00:26:00,28.0,22.9,30.44,SE,133,3.5,3.5,81,0.00,CLR,,0.00,0.0,WeatherDisplay:10.37,2013-11-30 06:26:00,
2013-11-30 00:31:00,28.0,22.9,30.44,SE,135,3.5,3.5,81,0.00,CLR,,0.00,0.0,WeatherDisplay:10.37,2013-11-30 06:31:00,
2013-11-30 00:36:00,28.0,22.9,30.44,SE,142,3.5,3.5,81,0.00,CLR,,0.00,0.0,WeatherDisplay:10.37,2013-11-30 06:36:00,
2013-11-30 00:41:00,27.9,22.8,30.44,SE,138,3.5,3.5,81,0.00,CLR,,0.00,0.0,WeatherDisplay:10.37,2013-11-30 06:41:00,
2013-11-30 00:46:00,27.9,22.8,30.44,SSE,149,3.5,3.5,81,0.00,CLR,,0.00,0.0,WeatherDisplay:10.37,2013-11-30 06:46:00,
2013-11-30 00:51:00,28.0,22.9,30.43,SSE,153,3.5,3.5,81,0.00,CLR,,0.00,0.0,WeatherDisplay:10.37,2013-11-30 06:51:00,
2013-11-30 00:56:00,28.1,23.3,30.43,SSE,160,3.5,3.5,82,0.00,CLR,,0.00,0.0,WeatherDisplay:10.37,2013-11-30 06:56:00,
2013-11-30 01:01:00,28.5,23.4,30.43,SSE,159,6.9,6.9,81,0.00,CLR,,0.00,0.0,WeatherDisplay:10.37,2013-11-30 07:01:00,
2013-11-30 01:07:00,29.1,23.7,30.43,SSE,164,5.8,5.8,80,0.00,CLR,,0.00,0.0,WeatherDisplay:10.37,2013-11-30 07:07:00,
2013-11-30 01:12:00,29.4,23.7,30.43,SSE,151,5.8,5.8,79,0.00,CLR,,0.00,0.0,WeatherDisplay:10.37,2013-11-30 07:12:00,
2013-11-30 01:17:00,29.6,23.6,30.43,SSE,161,5.8,5.8,78,0.00,CLR,,0.00,0.0,WeatherDisplay:10.37,2013-11-30 07:17:00,
2013-11-30 01:22:00,29.7,23.7,30.43,SSE,156,5.8,5.8,78,0.00,CLR,,0.00,0.0,WeatherDisplay:10.37,2013-11-30 07:22:00,
2013-11-30 01:27:00,29.7,23.4,30.43,SSE,158,6.9,6.9,77,0.00,CLR,,0.00,0.0,WeatherDisplay:10.37,2013-11-30 07:27:00,
2013-11-30 01:32:00,29.6,23.3,30.43,SSE,160,6.9,6.9,77,0.00,CLR,,0.00,0.0,WeatherDisplay:10.37,2013-11-30 07:32:00,
2013-11-30 01:37:00,29.5,23.2,30.43,South,174,8.1,8.1,77,0.00,CLR,,0.00,0.0,WeatherDisplay:10.37,2013-11-30 07:37:00,
2013-11-30 01:42:00,29.4,23.1,30.42,South,172,8.1,8.1,77,0.00,CLR,,0.00,0.0,WeatherDisplay:10.37,2013-11-30 07:42:00,
2013-11-30 01:47:00,29.2,23.2,30.42,South,171,6.9,6.9,78,0.00,CLR,,0.00,0.0,WeatherDisplay:10.37,2013-11-30 07:47:00,
2013-11-30 01:52:00,29.0,23.0,30.42,South,170,6.0,6.0,78,0.00,CLR,,0.00,0.0,WeatherDisplay:10.37,2013-11-30 07:52:00,
2013-11-30 01:57:00,28.9,22.9,30.42,SSE,166,6.9,6.9,78,0.00,CLR,,0.00,0.0,WeatherDisplay:10.37,2013-11-30 07:57:00,
2013-11-30 02:02:00,28.8,22.8,30.42,South,177,6.9,6.9,78,0.00,CLR,,0.00,0.0,WeatherDisplay:10.37,2013-11-30 08:02:00,
2013-11-30 02:07:00,28.7,23.0,30.42,SSE,167,5.8,5.8,79,0.00,CLR,,0.00,0.0,WeatherDisplay:10.37,2013-11-30 08:07:00,
2013-11-30 02:12:00,28.5,22.8,30.42,South,173,6.9,6.9,79,0.00,CLR,,0.00,0.0,WeatherDisplay:10.37,2013-11-30 08:12:00,
2013-11-30 02:17:00,28.4,22.7,30.42,South,171,4.6,4.6,79,0.00,CLR,,0.00,0.0,WeatherDisplay:10.37,2013-11-30 08:17:00,
2013-11-30 02:22:00,28.3,22.6,30.42,South,173,4.6,4.6,79,0.00,CLR,,0.00,0.0,WeatherDisplay:10.37,2013-11-30 08:22:00,
2013-11-30 02:27:00,28.1,22.4,30.42,SSE,168,4.6,4.6,79,0.00,CLR,,0.00,0.0,WeatherDisplay:10.37,2013-11-30 08:27:00,
2013-11-30 02:32:00,28.1,22.7,30.42,South,170,5.8,5.8,80,0.00,CLR,,0.00,0.0,WeatherDisplay:10.37,2013-11-30 08:32:00,
2013-11-30 02:37:00,28.1,22.7,30.42,SSE,165,5.8,5.8,80,0.00,CLR,,0.00,0.0,WeatherDisplay:10.37,2013-11-30 08:37:00,
2013-11-30 02:42:00,28.1,22.7,30.41,SSE,163,5.8,5.8,80,0.00,CLR,,0.00,0.0,WeatherDisplay:10.37,2013-11-30 08:42:00,
2013-11-30 02:47:00,28.0,22.6,30.41,SSE,157,5.8,5.8,80,0.00,CLR,,0.00,0.0,WeatherDisplay:10.37,2013-11-30 08:47:00,
2013-11-30 02:52:00,27.9,22.5,30.41,SSE,153,4.6,4.6,80,0.00,CLR,,0.00,0.0,WeatherDisplay:10.37,2013-11-30 08:52:00,
2013-11-30 02:57:00,27.7,22.3,30.41,SSE,165,4.6,4.6,80,0.00,CLR,,0.00,0.0,WeatherDisplay:10.37,2013-11-30 08:57:00,
2013-11-30 03:02:00,27.5,22.4,30.41,SSE,162,5.0,5.0,81,0.00,CLR,,0.00,0.0,WeatherDisplay:10.37,2013-11-30 09:02:00,
2013-11-30 03:07:00,27.4,22.3,30.40,SSE,161,5.8,5.8,81,0.00,CLR,,0.00,0.0,WeatherDisplay:10.37,2013-11-30 09:07:00,
2013-11-30 03:12:00,27.3,22.5,30.40,SSE,160,5.8,5.8,82,0.00,CLR,,0.00,0.0,WeatherDisplay:10.37,2013-11-30 09:12:00,
2013-11-30 03:17:00,27.2,22.1,30.40,SSE,159,6.0,6.0,81,0.00,CLR,,0.00,0.0,WeatherDisplay:10.37,2013-11-30 09:17:00,
2013-11-30 03:22:00,27.1,22.3,30.40,SSE,165,5.8,5.8,82,0.00,CLR,,0.00,0.0,WeatherDisplay:10.37,2013-11-30 09:22:00,
2013-11-30 03:27:00,27.1,22.3,30.40,SSE,160,4.6,4.6,82,0.00,CLR,,0.00,0.0,WeatherDisplay:10.37,2013-11-30 09:27:00,
2013-11-30 03:32:00,27.0,22.2,30.39,SSE,167,4.6,4.6,82,0.00,CLR,,0.00,0.0,WeatherDisplay:10.37,2013-11-30 09:32:00,
2013-11-30 03:37:00,26.9,22.1,30.39,SSE,164,4.0,4.0,82,0.00,CLR,,0.00,0.0,WeatherDisplay:10.37,2013-11-30 09:37:00,
2013-11-30 03:42:00,26.7,22.2,30.39,SSE,162,4.6,4.6,83,0.00,CLR,,0.00,0.0,WeatherDisplay:10.37,2013-11-30 09:42:00,
2013-11-30 03:47:00,26.8,22.3,30.39,SSE,167,5.8,5.8,83,0.00,CLR,,0.00,0.0,WeatherDisplay:10.37,2013-11-30 09:47:00,
2013-11-30 03:52:00,26.9,22.4,30.39,SSE,163,5.8,5.8,83,0.00,CLR,,0.00,0.0,WeatherDisplay:10.37,2013-11-30 09:52:00,
2013-11-30 03:57:00,27.0,22.5,30.38,SSE,153,5.8,5.8,83,0.00,CLR,,0.00,0.0,WeatherDisplay:10.37,2013-11-30 09:57:00,
2013-11-30 04:02:00,27.1,22.6,30.38,SSE,159,5.8,5.8,83,0.00,CLR,,0.00,0.0,WeatherDisplay:10.37,2013-11-30 10:02:00,
2013-11-30 04:07:00,27.2,22.7,30.38,SSE,157,7.0,7.0,83,0.00,CLR,,0.00,0.0,WeatherDisplay:10.37,2013-11-30 10:07:00,
2013-11-30 04:12:00,27.5,22.7,30.38,SSE,165,7.0,7.0,82,0.00,CLR,,0.00,0.0,WeatherDisplay:10.37,2013-11-30 10:12:00,
2013-11-30 04:17:00,27.6,22.8,30.38,SSE,150,8.1,8.1,82,0.00,CLR,,0.00,0.0,WeatherDisplay:10.37,2013-11-30 10:17:00,
2013-11-30 04:22:00,27.6,22.8,30.38,SSE,155,6.9,6.9,82,0.00,CLR,,0.00,0.0,WeatherDisplay:10.37,2013-11-30 10:22:00,
2013-11-30 04:27:00,27.6,22.8,30.37,SSE,153,6.9,6.9,82,0.00,CLR,,0.00,0.0,WeatherDisplay:10.37,2013-11-30 10:27:00,
2013-11-30 04:32:00,27.7,22.9,30.37,SSE,161,6.0,6.0,82,0.00,CLR,,0.00,0.0,WeatherDisplay:10.37,2013-11-30 10:32:00,
2013-11-30 04:38:00,27.6,22.8,30.37,SSE,147,5.0,5.0,82,0.00,CLR,,0.00,0.0,WeatherDisplay:10.37,2013-11-30 10:38:00,
2013-11-30 04:43:00,27.5,22.7,30.37,SSE,164,5.0,5.0,82,0.00,CLR,,0.00,0.0,WeatherDisplay:10.37,2013-11-30 10:43:00,
2013-11-30 04:48:00,27.5,22.7,30.37,SSE,162,5.8,5.8,82,0.00,CLR,,0.00,0.0,WeatherDisplay:10.37,2013-11-30 10:48:00,
2013-11-30 04:53:00,27.4,22.6,30.37,SSE,164,6.0,6.0,82,0.00,CLR,,0.00,0.0,WeatherDisplay:10.37,2013-11-30 10:53:00,
2013-11-30 04:58:00,27.3,22.5,30.37,SSE,158,4.6,4.6,82,0.00,CLR,,0.00,0.0,WeatherDisplay:10.37,2013-11-30 10:58:00,
2013-11-30 05:03:00,27.2,22.7,30.36,South,172,6.0,6.0,83,0.00,CLR,,0.00,0.0,WeatherDisplay:10.37,2013-11-30 11:03:00,
2013-11-30 05:08:00,27.1,22.6,30.36,South,169,5.8,5.8,83,0.00,CLR,,0.00,0.0,WeatherDisplay:10.37,2013-11-30 11:08:00,
2013-11-30 05:13:00,26.8,22.3,30.36,SSE,168,4.6,4.6,83,0.00,CLR,,0.00,0.0,WeatherDisplay:10.37,2013-11-30 11:13:00,
2013-11-30 05:18:00,26.6,22.1,30.36,SSE,164,5.8,5.8,83,0.00,CLR,,0.00,0.0,WeatherDisplay:10.37,2013-11-30 11:18:00,
2013-11-30 05:23:00,26.3,22.1,30.36,SSE,152,5.0,5.0,84,0.00,CLR,,0.00,0.0,WeatherDisplay:10.37,2013-11-30 11:23:00,
2013-11-30 05:28:00,26.1,21.9,30.35,SSE,167,4.6,4.6,84,0.00,CLR,,0.00,0.0,WeatherDisplay:10.37,2013-11-30 11:28:00,
2013-11-30 05:33:00,25.9,21.7,30.36,SSE,157,3.5,3.5,84,0.00,CLR,,0.00,0.0,WeatherDisplay:10.37,2013-11-30 11:33:00,
2013-11-30 05:38:00,25.6,21.7,30.35,South,169,3.5,3.5,85,0.00,CLR,,0.00,0.0,WeatherDisplay:10.37,2013-11-30 11:38:00,
2013-11-30 05:43:00,25.5,21.6,30.35,South,170,3.5,3.5,85,0.00,CLR,,0.00,0.0,WeatherDisplay:10.37,2013-11-30 11:43:00,
2013-11-30 05:48:00,25.7,22.1,30.35,SSE,165,5.8,5.8,86,0.00,CLR,,0.00,0.0,WeatherDisplay:10.37,2013-11-30 11:48:00,
2013-11-30 05:53:00,26.1,22.5,30.35,SSE,150,5.8,5.8,86,0.00,CLR,,0.00,0.0,WeatherDisplay:10.37,2013-11-30 11:53:00,
2013-11-30 05:58:00,26.3,22.7,30.35,South,170,5.8,5.8,86,0.00,CLR,,0.00,0.0,WeatherDisplay:10.37,2013-11-30 11:58:00,
2013-11-30 06:03:00,26.7,23.1,30.35,South,189,6.9,6.9,86,0.00,CLR,,0.00,0.0,WeatherDisplay:10.37,2013-11-30 12:03:00,
2013-11-30 06:08:00,27.8,24.2,30.34,South,188,11.5,11.5,86,0.00,CLR,,0.00,0.0,WeatherDisplay:10.37,2013-11-30 12:08:00,
2013-11-30 06:13:00,29.0,24.5,30.34,SSW,192,12.7,12.7,83,0.00,CLR,,0.00,0.0,WeatherDisplay:10.37,2013-11-30 12:13:00,
2013-11-30 06:18:00,29.2,24.4,30.34,South,171,10.4,10.4,82,0.00,CLR,,0.00,0.0,WeatherDisplay:10.37,2013-11-30 12:18:00,
2013-11-30 06:23:00,29.4,24.6,30.35,South,178,10.4,10.4,82,0.00,CLR,,0.00,0.0,WeatherDisplay:10.37,2013-11-30 12:23:00,
2013-11-30 06:28:00,29.6,24.5,30.34,South,178,9.2,9.2,81,0.00,CLR,,0.00,0.0,WeatherDisplay:10.37,2013-11-30 12:28:00,
2013-11-30 06:33:00,29.3,24.2,30.34,South,180,9.0,9.0,81,0.00,CLR,,0.00,0.0,WeatherDisplay:10.37,2013-11-30 12:33:00,
2013-11-30 06:38:00,29.1,24.0,30.34,South,173,6.9,6.9,81,0.00,CLR,,0.00,0.0,WeatherDisplay:10.37,2013-11-30 12:38:00,
2013-11-30 06:43:00,29.0,24.2,30.34,SSE,167,12.7,12.7,82,0.00,CLR,,0.00,0.0,WeatherDisplay:10.37,2013-11-30 12:43:00,
2013-11-30 06:48:00,29.8,24.7,30.34,South,181,11.5,11.5,81,0.00,CLR,,0.00,0.0,WeatherDisplay:10.37,2013-11-30 12:48:00,
2013-11-30 06:53:00,30.1,24.7,30.34,SSE,158,15.0,15.0,80,0.00,CLR,,0.00,0.0,WeatherDisplay:10.37,2013-11-30 12:53:00,
2013-11-30 06:58:00,29.8,24.7,30.34,South,169,6.9,6.9,81,0.00,CLR,,0.00,0.0,WeatherDisplay:10.37,2013-11-30 12:58:00,
2013-11-30 07:03:00,29.4,24.3,30.33,SSW,196,9.0,9.0,81,0.00,CLR,,0.00,5.0,WeatherDisplay:10.37,2013-11-30 13:03:00,
2013-11-30 07:08:00,29.6,24.8,30.33,South,171,10.4,10.4,82,0.00,CLR,,0.00,7.0,WeatherDisplay:10.37,2013-11-30 13:08:00,
2013-11-30 07:13:00,30.3,25.5,30.33,South,178,12.7,12.7,82,0.00,CLR,,0.00,12.0,WeatherDisplay:10.37,2013-11-30 13:13:00,
2013-11-30 07:18:00,30.7,25.6,30.33,South,183,11.5,11.5,81,0.00,CLR,,0.00,14.0,WeatherDisplay:10.37,2013-11-30 13:18:00,
2013-11-30 07:23:00,31.1,25.7,30.33,South,175,13.8,13.8,80,0.00,CLR,,0.00,18.0,WeatherDisplay:10.37,2013-11-30 13:23:00,
2013-11-30 07:28:00,31.4,25.6,30.33,South,183,15.0,15.0,79,0.00,CLR,,0.00,23.0,WeatherDisplay:10.37,2013-11-30 13:28:00,
2013-11-30 07:33:00,31.9,25.8,30.33,South,185,11.5,11.5,78,0.00,CLR,,0.00,35.0,WeatherDisplay:10.37,2013-11-30 13:33:00,
2013-11-30 07:38:00,32.1,25.7,30.33,South,190,10.4,10.4,77,0.00,CLR,,0.00,21.0,WeatherDisplay:10.37,2013-11-30 13:38:00,
2013-11-30 07:43:00,32.0,25.6,30.33,South,188,12.7,12.7,77,0.00,CLR,,0.00,23.0,WeatherDisplay:10.37,2013-11-30 13:43:00,
2013-11-30 07:48:00,32.0,25.6,30.33,South,185,12.7,12.7,77,0.00,CLR,,0.00,26.0,WeatherDisplay:10.37,2013-11-30 13:48:00,
2013-11-30 07:53:00,32.2,25.8,30.32,SSW,192,17.3,17.3,77,0.00,CLR,,0.00,33.0,WeatherDisplay:10.37,2013-11-30 13:53:00,
2013-11-30 07:58:00,32.4,26.0,30.32,SSE,163,11.5,11.5,77,0.00,CLR,,0.00,32.0,WeatherDisplay:10.37,2013-11-30 13:58:00,
2013-11-30 08:03:00,32.5,25.8,30.32,South,185,16.1,16.1,76,0.00,CLR,,0.00,32.0,WeatherDisplay:10.37,2013-11-30 14:03:00,
2013-11-30 08:08:00,32.5,25.8,30.32,South,188,12.7,12.7,76,0.00,CLR,,0.00,37.0,WeatherDisplay:10.37,2013-11-30 14:08:00,
2013-11-30 08:13:00,32.6,25.9,30.32,South,178,16.1,16.1,76,0.00,CLR,,0.00,74.0,WeatherDisplay:10.37,2013-11-30 14:13:00,
2013-11-30 08:18:00,33.1,26.7,30.31,SSW,193,13.0,13.0,77,0.00,CLR,,0.00,165.0,WeatherDisplay:10.37,2013-11-30 14:18:00,
2013-11-30 08:23:00,33.7,26.6,30.31,South,184,12.7,12.7,75,0.00,CLR,,0.00,174.0,WeatherDisplay:10.37,2013-11-30 14:23:00,
2013-11-30 08:28:00,34.2,27.1,30.31,South,182,15.0,15.0,75,0.00,CLR,,0.00,186.0,WeatherDisplay:10.37,2013-11-30 14:28:00,
2013-11-30 08:33:00,34.3,26.9,30.31,South,180,15.0,15.0,74,0.00,CLR,,0.00,91.0,WeatherDisplay:10.37,2013-11-30 14:33:00,
2013-11-30 08:38:00,34.2,26.8,30.31,South,188,15.0,15.0,74,0.00,CLR,,0.00,213.0,WeatherDisplay:10.37,2013-11-30 14:38:00,
2013-11-30 08:43:00,34.8,27.4,30.31,South,178,15.0,15.0,74,0.00,CLR,,0.00,223.0,WeatherDisplay:10.37,2013-11-30 14:43:00,
2013-11-30 08:48:00,35.0,26.9,30.30,SSW,201,13.8,13.8,72,0.00,CLR,,0.00,72.0,WeatherDisplay:10.37,2013-11-30 14:48:00,
2013-11-30 08:53:00,35.2,27.1,30.30,South,180,19.6,19.6,72,0.00,CLR,,0.00,260.0,WeatherDisplay:10.37,2013-11-30 14:53:00,
2013-11-30 08:58:00,35.6,27.5,30.30,South,169,12.7,12.7,72,0.00,CLR,,0.00,114.0,WeatherDisplay:10.37,2013-11-30 14:58:00,
2013-11-30 09:03:00,35.5,27.4,30.30,SSW,205,13.8,13.8,72,0.00,CLR,,0.00,200.0,WeatherDisplay:10.37,2013-11-30 15:03:00,
2013-11-30 09:08:00,36.2,27.7,30.30,South,189,15.0,15.0,71,0.00,CLR,,0.00,285.0,WeatherDisplay:10.37,2013-11-30 15:08:00,
2013-11-30 09:13:00,36.9,28.0,30.30,South,176,16.1,16.1,70,0.00,CLR,,0.00,292.0,WeatherDisplay:10.37,2013-11-30 15:13:00,
2013-11-30 09:18:00,37.7,28.4,30.29,SSW,207,16.1,16.1,69,0.00,CLR,,0.00,302.0,WeatherDisplay:10.37,2013-11-30 15:18:00,
2013-11-30 09:23:00,38.2,28.6,30.29,South,182,18.0,18.0,68,0.00,CLR,,0.00,311.0,WeatherDisplay:10.37,2013-11-30 15:23:00,
2013-11-30 09:28:00,38.5,28.9,30.29,South,190,16.1,16.1,68,0.00,CLR,,0.00,322.0,WeatherDisplay:10.37,2013-11-30 15:28:00,
2013-11-30 09:33:00,38.9,28.9,30.29,SW,217,13.8,13.8,67,0.00,CLR,,0.00,330.0,WeatherDisplay:10.37,2013-11-30 15:33:00,
2013-11-30 09:38:00,39.3,29.3,30.28,SSW,209,13.8,13.8,67,0.00,CLR,,0.00,341.0,WeatherDisplay:10.37,2013-11-30 15:38:00,
2013-11-30 09:43:00,39.7,29.3,30.28,SSW,205,12.7,12.7,66,0.00,CLR,,0.00,350.0,WeatherDisplay:10.37,2013-11-30 15:43:00,
2013-11-30 09:48:00,40.0,29.2,30.28,SW,214,16.1,16.1,65,0.00,CLR,,0.00,355.0,WeatherDisplay:10.37,2013-11-30 15:48:00,
2013-11-30 09:53:00,40.2,29.4,30.28,SSW,207,11.5,11.5,65,0.00,CLR,,0.00,364.0,WeatherDisplay:10.37,2013-11-30 15:53:00,
2013-11-30 09:58:00,40.4,29.6,30.28,South,180,12.0,12.0,65,0.00,CLR,,0.00,371.0,WeatherDisplay:10.37,2013-11-30 15:58:00,
2013-11-30 10:03:00,40.7,29.5,30.28,SW,217,13.0,13.0,64,0.00,CLR,,0.00,378.0,WeatherDisplay:10.37,2013-11-30 16:03:00,
2013-11-30 10:08:00,40.9,29.7,30.28,SSW,200,15.0,15.0,64,0.00,CLR,,0.00,387.0,WeatherDisplay:10.37,2013-11-30 16:08:00,
2013-11-30 10:14:00,41.6,30.3,30.28,SSW,192,13.0,13.0,64,0.00,CLR,,0.00,392.0,WeatherDisplay:10.37,2013-11-30 16:14:00,
2013-11-30 10:19:00,42.2,30.5,30.27,SW,219,12.7,12.7,63,0.00,CLR,,0.00,399.0,WeatherDisplay:10.37,2013-11-30 16:19:00,
2013-11-30 10:24:00,42.8,31.1,30.27,SSW,202,12.7,12.7,63,0.00,CLR,,0.00,408.0,WeatherDisplay:10.37,2013-11-30 16:24:00,
2013-11-30 10:29:00,43.3,31.1,30.27,SW,220,16.1,16.1,62,0.00,CLR,,0.00,411.0,WeatherDisplay:10.37,2013-11-30 16:29:00,
2013-11-30 10:34:00,44.1,31.5,30.26,South,182,13.0,13.0,61,0.00,CLR,,0.00,418.0,WeatherDisplay:10.37,2013-11-30 16:34:00,
2013-11-30 10:39:00,44.2,31.2,30.26,SSW,200,20.0,20.0,60,0.00,CLR,,0.00,424.0,WeatherDisplay:10.37,2013-11-30 16:39:00,
2013-11-30 10:44:00,44.1,31.5,30.26,SW,231,19.6,19.6,61,0.00,CLR,,0.00,427.0,WeatherDisplay:10.37,2013-11-30 16:44:00,
2013-11-30 10:49:00,44.1,31.5,30.25,South,189,15.0,15.0,61,0.00,CLR,,0.00,431.0,WeatherDisplay:10.37,2013-11-30 16:49:00,
2013-11-30 10:54:00,44.5,31.5,30.25,SSW,200,17.0,17.0,60,0.00,CLR,,0.00,436.0,WeatherDisplay:10.37,2013-11-30 16:54:00,
2013-11-30 10:59:00,44.3,31.3,30.25,SW,215,16.1,16.1,60,0.00,CLR,,0.00,439.0,WeatherDisplay:10.37,2013-11-30 16:59:00,
2013-11-30 11:04:00,44.6,31.6,30.24,SSW,201,16.1,16.1,60,0.00,CLR,,0.00,443.0,WeatherDisplay:10.37,2013-11-30 17:04:00,
2013-11-30 11:09:00,44.6,31.6,30.24,SSW,200,18.4,18.4,60,0.00,CLR,,0.00,446.0,WeatherDisplay:10.37,2013-11-30 17:09:00,
2013-11-30 11:14:00,44.8,31.8,30.24,SSW,202,13.8,13.8,60,0.00,CLR,,0.00,446.0,WeatherDisplay:10.37,2013-11-30 17:14:00,
2013-11-30 11:19:00,45.4,31.9,30.24,SW,217,11.5,11.5,59,0.00,CLR,,0.00,452.0,WeatherDisplay:10.37,2013-11-30 17:19:00,
2013-11-30 11:24:00,45.7,32.2,30.23,South,190,16.1,16.1,59,0.00,CLR,,0.00,452.0,WeatherDisplay:10.37,2013-11-30 17:24:00,
2013-11-30 11:29:00,45.9,32.4,30.23,South,190,15.0,15.0,59,0.00,CLR,,0.00,450.0,WeatherDisplay:10.37,2013-11-30 17:29:00,
2013-11-30 11:34:00,46.0,32.5,30.22,SSE,167,11.5,11.5,59,0.00,CLR,,0.00,454.0,WeatherDisplay:10.37,2013-11-30 17:34:00,
2013-11-30 11:39:00,46.4,32.4,30.22,SSW,201,9.2,9.2,58,0.00,CLR,,0.00,452.0,WeatherDisplay:10.37,2013-11-30 17:39:00,
2013-11-30 11:44:00,46.6,32.6,30.22,South,190,13.0,13.0,58,0.00,CLR,,0.00,452.0,WeatherDisplay:10.37,2013-11-30 17:44:00,
2013-11-30 11:49:00,46.9,32.4,30.21,SSW,209,16.1,16.1,57,0.00,CLR,,0.00,454.0,WeatherDisplay:10.37,2013-11-30 17:49:00,
2013-11-30 11:54:00,47.0,32.5,30.21,SW,221,13.0,13.0,57,0.00,CLR,,0.00,450.0,WeatherDisplay:10.37,2013-11-30 17:54:00,
2013-11-30 11:59:00,47.2,32.3,30.20,SSW,213,15.0,15.0,56,0.00,CLR,,0.00,448.0,WeatherDisplay:10.37,2013-11-30 17:59:00,
2013-11-30 12:04:00,47.4,32.5,30.20,SSW,200,11.5,11.5,56,0.00,CLR,,0.00,448.0,WeatherDisplay:10.37,2013-11-30 18:04:00,
2013-11-30 12:09:00,47.8,32.9,30.20,SW,225,11.5,11.5,56,0.00,CLR,,0.00,445.0,WeatherDisplay:10.37,2013-11-30 18:09:00,
2013-11-30 12:14:00,48.3,32.9,30.19,SSW,206,11.5,11.5,55,0.00,CLR,,0.00,443.0,WeatherDisplay:10.37,2013-11-30 18:14:00,
2013-11-30 12:19:00,48.5,32.6,30.19,SW,231,11.5,11.5,54,0.00,CLR,,0.00,441.0,WeatherDisplay:10.37,2013-11-30 18:19:00,
2013-11-30 12:24:00,48.3,32.4,30.19,SW,215,13.8,13.8,54,0.00,CLR,,0.00,439.0,WeatherDisplay:10.37,2013-11-30 18:24:00,
2013-11-30 12:29:00,48.2,32.3,30.19,SSW,194,17.3,17.3,54,0.00,CLR,,0.00,434.0,WeatherDisplay:10.37,2013-11-30 18:29:00,
2013-11-30 12:34:00,48.3,32.4,30.18,South,185,13.8,13.8,54,0.00,CLR,,0.00,432.0,WeatherDisplay:10.37,2013-11-30 18:34:00,
2013-11-30 12:39:00,48.6,32.7,30.18,South,184,11.5,11.5,54,0.00,CLR,,0.00,427.0,WeatherDisplay:10.37,2013-11-30 18:39:00,
2013-11-30 12:44:00,48.7,32.3,30.18,SW,217,16.1,16.1,53,0.00,CLR,,0.00,422.0,WeatherDisplay:10.37,2013-11-30 18:44:00,
2013-11-30 12:49:00,49.0,32.6,30.17,SW,219,13.8,13.8,53,0.00,CLR,,0.00,417.0,WeatherDisplay:10.37,2013-11-30 18:49:00,
2013-11-30 12:54:00,49.0,32.6,30.17,SW,217,14.0,14.0,53,0.00,CLR,,0.00,411.0,WeatherDisplay:10.37,2013-11-30 18:54:00,
2013-11-30 12:59:00,49.1,32.7,30.17,SSW,198,10.4,10.4,53,0.00,CLR,,0.00,404.0,WeatherDisplay:10.37,2013-11-30 18:59:00,
2013-11-30 13:04:00,49.3,32.4,30.17,SSW,201,13.0,13.0,52,0.00,CLR,,0.00,397.0,WeatherDisplay:10.37,2013-11-30 19:04:00,
2013-11-30 13:09:00,49.3,32.9,30.16,South,191,11.5,11.5,53,0.00,CLR,,0.00,392.0,WeatherDisplay:10.37,2013-11-30 19:09:00,
2013-11-30 13:14:00,49.4,32.0,30.16,South,186,15.0,15.0,51,0.00,CLR,,0.00,387.0,WeatherDisplay:10.37,2013-11-30 19:14:00,
2013-11-30 13:19:00,49.3,32.4,30.16,South,182,15.0,15.0,52,0.00,CLR,,0.00,380.0,WeatherDisplay:10.37,2013-11-30 19:19:00,
2013-11-30 13:24:00,49.5,32.1,30.16,SW,216,13.8,13.8,51,0.00,CLR,,0.00,371.0,WeatherDisplay:10.37,2013-11-30 19:24:00,
2013-11-30 13:29:00,49.6,32.7,30.15,SSW,195,12.7,12.7,52,0.00,CLR,,0.00,366.0,WeatherDisplay:10.37,2013-11-30 19:29:00,
2013-11-30 13:34:00,49.6,32.7,30.15,SSW,197,16.1,16.1,52,0.00,CLR,,0.00,355.0,WeatherDisplay:10.37,2013-11-30 19:34:00,
2013-11-30 13:39:00,49.6,32.2,30.15,SSW,196,15.0,15.0,51,0.00,CLR,,0.00,346.0,WeatherDisplay:10.37,2013-11-30 19:39:00,
2013-11-30 13:44:00,49.8,32.4,30.15,SSW,213,13.8,13.8,51,0.00,CLR,,0.00,338.0,WeatherDisplay:10.37,2013-11-30 19:44:00,
2013-11-30 13:49:00,49.9,32.5,30.15,SSW,213,12.7,12.7,51,0.00,CLR,,0.00,329.0,WeatherDisplay:10.37,2013-11-30 19:49:00,
2013-11-30 13:54:00,50.0,32.1,30.15,SW,222,13.8,13.8,50,0.00,CLR,,0.00,323.0,WeatherDisplay:10.37,2013-11-30 19:54:00,
2013-11-30 13:59:00,49.9,32.0,30.15,SW,223,17.3,17.3,50,0.00,CLR,,0.00,313.0,WeatherDisplay:10.37,2013-11-30 19:59:00,
2013-11-30 14:04:00,49.7,31.8,30.14,SSW,201,14.0,14.0,50,0.00,CLR,,0.00,302.0,WeatherDisplay:10.37,2013-11-30 20:04:00,
2013-11-30 14:10:00,49.8,32.4,30.14,SSW,200,13.8,13.8,51,0.00,CLR,,0.00,294.0,WeatherDisplay:10.37,2013-11-30 20:10:00,
2013-11-30 14:15:00,49.8,32.4,30.14,SSW,198,15.0,15.0,51,0.00,CLR,,0.00,279.0,WeatherDisplay:10.37,2013-11-30 20:15:00,
2013-11-30 14:20:00,49.9,32.5,30.14,SW,214,15.0,15.0,51,0.00,CLR,,0.00,269.0,WeatherDisplay:10.37,2013-11-30 20:20:00,
2013-11-30 14:25:00,49.9,32.5,30.13,South,182,15.0,15.0,51,0.00,CLR,,0.00,258.0,WeatherDisplay:10.37,2013-11-30 20:25:00,
2013-11-30 14:30:00,49.9,32.5,30.13,SSW,205,16.0,16.0,51,0.00,CLR,,0.00,246.0,WeatherDisplay:10.37,2013-11-30 20:30:00,
2013-11-30 14:35:00,49.9,32.5,30.13,SW,215,15.0,15.0,51,0.00,CLR,,0.00,234.0,WeatherDisplay:10.37,2013-11-30 20:35:00,
2013-11-30 14:40:00,49.9,32.0,30.13,SW,218,13.8,13.8,50,0.00,CLR,,0.00,220.0,WeatherDisplay:10.37,2013-11-30 20:40:00,
2013-11-30 14:45:00,49.9,32.0,30.12,South,190,13.8,13.8,50,0.00,CLR,,0.00,206.0,WeatherDisplay:10.37,2013-11-30 20:45:00,
2013-11-30 14:50:00,49.8,31.9,30.12,South,188,12.7,12.7,50,0.00,CLR,,0.00,188.0,WeatherDisplay:10.37,2013-11-30 20:50:00,
2013-11-30 14:55:00,49.7,31.8,30.12,SW,232,13.8,13.8,50,0.00,CLR,,0.00,174.0,WeatherDisplay:10.37,2013-11-30 20:55:00,
2013-11-30 15:00:00,49.7,31.8,30.12,SSW,210,11.5,11.5,50,0.00,CLR,,0.00,156.0,WeatherDisplay:10.37,2013-11-30 21:00:00,
2013-11-30 15:05:00,49.6,31.7,30.12,SSW,200,11.5,11.5,50,0.00,CLR,,0.00,144.0,WeatherDisplay:10.37,2013-11-30 21:05:00,
2013-11-30 15:10:00,49.6,31.7,30.12,SW,227,11.0,11.0,50,0.00,CLR,,0.00,130.0,WeatherDisplay:10.37,2013-11-30 21:10:00,
2013-11-30 15:15:00,49.4,31.5,30.12,SSW,202,12.7,12.7,50,0.00,CLR,,0.00,114.0,WeatherDisplay:10.37,2013-11-30 21:15:00,
2013-11-30 15:20:00,49.4,31.5,30.12,SW,220,10.4,10.4,50,0.00,CLR,,0.00,100.0,WeatherDisplay:10.37,2013-11-30 21:20:00,
2013-11-30 15:25:00,49.3,31.9,30.12,South,187,9.2,9.2,51,0.00,CLR,,0.00,86.0,WeatherDisplay:10.37,2013-11-30 21:25:00,
2013-11-30 15:30:00,49.1,31.7,30.12,SSW,211,9.2,9.2,51,0.00,CLR,,0.00,72.0,WeatherDisplay:10.37,2013-11-30 21:30:00,
2013-11-30 15:35:00,49.0,31.6,30.12,South,186,11.5,11.5,51,0.00,CLR,,0.00,60.0,WeatherDisplay:10.37,2013-11-30 21:35:00,
2013-11-30 15:40:00,48.8,31.5,30.13,South,188,9.2,9.2,51,0.00,CLR,,0.00,49.0,WeatherDisplay:10.37,2013-11-30 21:40:00,
2013-11-30 15:45:00,48.5,31.7,30.12,SW,215,10.4,10.4,52,0.00,CLR,,0.00,40.0,WeatherDisplay:10.37,2013-11-30 21:45:00,
2013-11-30 15:50:00,48.4,31.6,30.13,SSW,203,8.1,8.1,52,0.00,CLR,,0.00,32.0,WeatherDisplay:10.37,2013-11-30 21:50:00,
2013-11-30 15:55:00,48.2,31.4,30.13,SSW,201,7.0,7.0,52,0.00,CLR,,0.00,23.0,WeatherDisplay:10.37,2013-11-30 21:55:00,
2013-11-30 16:00:00,47.8,31.5,30.12,SSW,198,10.0,10.0,53,0.00,CLR,,0.00,18.0,WeatherDisplay:10.37,2013-11-30 22:00:00,
2013-11-30 16:05:00,47.3,31.0,30.12,South,179,10.4,10.4,53,0.00,CLR,,0.00,12.0,WeatherDisplay:10.37,2013-11-30 22:05:00,
2013-11-30 16:10:00,46.8,31.0,30.12,SSW,192,8.1,8.1,54,0.00,CLR,,0.00,11.0,WeatherDisplay:10.37,2013-11-30 22:10:00,
2013-11-30 16:15:00,46.5,31.2,30.12,South,184,7.0,7.0,55,0.00,CLR,,0.00,7.0,WeatherDisplay:10.37,2013-11-30 22:15:00,
2013-11-30 16:20:00,46.1,30.8,30.12,SW,216,8.1,8.1,55,0.00,CLR,,0.00,5.0,WeatherDisplay:10.37,2013-11-30 22:20:00,
2013-11-30 16:25:00,45.5,30.7,30.12,South,184,6.9,6.9,56,0.00,CLR,,0.00,0.0,WeatherDisplay:10.37,2013-11-30 22:25:00,
2013-11-30 16:30:00,44.5,30.2,30.12,South,178,4.6,4.6,57,0.00,CLR,,0.00,0.0,WeatherDisplay:10.37,2013-11-30 22:30:00,
2013-11-30 16:35:00,42.7,29.4,30.12,South,176,5.0,5.0,59,0.00,CLR,,0.00,0.0,WeatherDisplay:10.37,2013-11-30 22:35:00,
2013-11-30 16:40:00,41.2,29.5,30.11,South,176,3.5,3.5,63,0.00,CLR,,0.00,0.0,WeatherDisplay:10.37,2013-11-30 22:40:00,
2013-11-30 16:45:00,40.4,29.2,30.11,South,178,3.5,3.5,64,0.00,CLR,,0.00,0.0,WeatherDisplay:10.37,2013-11-30 22:45:00,
2013-11-30 16:50:00,39.6,28.8,30.11,South,172,3.5,3.5,65,0.00,CLR,,0.00,0.0,WeatherDisplay:10.37,2013-11-30 22:50:00,
2013-11-30 16:55:00,38.8,28.8,30.11,South,169,3.5,3.5,67,0.00,CLR,,0.00,0.0,WeatherDisplay:10.37,2013-11-30 22:55:00,
2013-11-30 17:00:00,38.0,28.4,30.11,South,175,3.5,3.5,68,0.00,CLR,,0.00,0.0,WeatherDisplay:10.37,2013-11-30 23:00:00,
2013-11-30 17:05:00,37.7,28.4,30.11,South,175,3.5,3.5,69,0.00,CLR,,0.00,0.0,WeatherDisplay:10.37,2013-11-30 23:05:00,
2013-11-30 17:10:00,37.5,28.2,30.11,South,176,3.5,3.5,69,0.00,CLR,,0.00,0.0,WeatherDisplay:10.37,2013-11-30 23:10:00,
2013-11-30 17:15:00,37.1,28.2,30.11,South,176,3.5,3.5,70,0.00,CLR,,0.00,0.0,WeatherDisplay:10.37,2013-11-30 23:15:00,
2013-11-30 17:20:00,36.7,27.8,30.11,South,176,0.0,0.0,70,0.00,CLR,,0.00,0.0,WeatherDisplay:10.37,2013-11-30 23:20:00,
2013-11-30 17:25:00,36.3,27.8,30.11,South,176,0.0,0.0,71,0.00,CLR,,0.00,0.0,WeatherDisplay:10.37,2013-11-30 23:25:00,
2013-11-30 17:30:00,36.1,27.6,30.11,South,176,0.0,0.0,71,0.00,CLR,,0.00,0.0,WeatherDisplay:10.37,2013-11-30 23:30:00,
2013-11-30 17:35:00,35.8,27.7,30.12,South,176,0.0,0.0,72,0.00,CLR,,0.00,0.0,WeatherDisplay:10.37,2013-11-30 23:35:00,
2013-11-30 17:40:00,35.7,27.6,30.11,South,176,0.0,0.0,72,0.00,CLR,,0.00,0.0,WeatherDisplay:10.37,2013-11-30 23:40:00,
2013-11-30 17:45:00,35.6,27.5,30.11,South,176,0.0,0.0,72,0.00,CLR,,0.00,0.0,WeatherDisplay:10.37,2013-11-30 23:45:00,
2013-11-30 17:50:00,35.4,27.3,30.11,South,176,0.0,0.0,72,0.00,CLR,,0.00,0.0,WeatherDisplay:10.37,2013-11-30 23:50:00,
2013-11-30 17:55:00,35.4,27.6,30.11,South,176,1.2,1.2,73,0.00,CLR,,0.00,0.0,WeatherDisplay:10.37,2013-11-30 23:55:00,
2013-11-30 18:00:00,35.4,27.6,30.11,South,176,1.2,0.0,73,0.00,CLR,,0.00,0.0,WeatherDisplay:10.37,2013-12-01 00:00:00,
2013-11-30 18:05:00,35.5,27.7,30.11,South,176,2.3,2.3,73,0.00,CLR,,0.00,0.0,WeatherDisplay:10.37,2013-12-01 00:05:00,
2013-11-30 18:10:00,35.6,28.1,30.11,South,176,2.3,2.3,74,0.00,CLR,,0.00,0.0,WeatherDisplay:10.37,2013-12-01 00:10:00,
2013-11-30 18:15:00,35.6,27.8,30.12,South,176,2.3,2.3,73,0.00,CLR,,0.00,0.0,WeatherDisplay:10.37,2013-12-01 00:15:00,
2013-11-30 18:21:00,35.6,28.1,30.11,South,187,3.5,3.5,74,0.00,CLR,,0.00,0.0,WeatherDisplay:10.37,2013-12-01 00:21:00,
2013-11-30 18:26:00,35.5,27.7,30.11,South,187,2.3,2.3,73,0.00,CLR,,0.00,0.0,WeatherDisplay:10.37,2013-12-01 00:26:00,
2013-11-30 18:31:00,35.3,27.8,30.12,South,187,2.3,2.3,74,0.00,CLR,,0.00,0.0,WeatherDisplay:10.37,2013-12-01 00:31:00,
2013-11-30 18:36:00,35.1,27.6,30.12,South,187,2.3,2.3,74,0.00,CLR,,0.00,0.0,WeatherDisplay:10.37,2013-12-01 00:36:00,
2013-11-30 18:41:00,35.2,28.1,30.12,SSW,193,5.8,5.8,75,0.00,CLR,,0.00,0.0,WeatherDisplay:10.37,2013-12-01 00:41:00,
2013-11-30 18:46:00,37.5,30.0,30.13,South,176,7.0,7.0,74,0.00,CLR,,0.00,0.0,WeatherDisplay:10.37,2013-12-01 00:46:00,
2013-11-30 18:51:00,38.9,29.9,30.13,SSW,194,8.1,8.1,70,0.00,CLR,,0.00,0.0,WeatherDisplay:10.37,2013-12-01 00:51:00,
2013-11-30 18:56:00,39.7,30.4,30.13,SSW,203,6.9,6.9,69,0.00,CLR,,0.00,0.0,WeatherDisplay:10.37,2013-12-01 00:56:00,
2013-11-30 19:01:00,40.2,30.5,30.13,South,186,10.4,10.4,68,0.00,CLR,,0.00,0.0,WeatherDisplay:10.37,2013-12-01 01:01:00,
2013-11-30 19:06:00,40.4,30.3,30.13,South,178,8.1,8.1,67,0.00,CLR,,0.00,0.0,WeatherDisplay:10.37,2013-12-01 01:06:00,
2013-11-30 19:11:00,40.3,30.2,30.13,SSW,211,8.1,8.1,67,0.00,CLR,,0.00,0.0,WeatherDisplay:10.37,2013-12-01 01:11:00,
2013-11-30 19:16:00,40.1,30.0,30.13,SSW,192,8.1,8.1,67,0.00,CLR,,0.00,0.0,WeatherDisplay:10.37,2013-12-01 01:16:00,
2013-11-30 19:21:00,39.9,29.8,30.13,SSW,192,6.9,6.9,67,0.00,CLR,,0.00,0.0,WeatherDisplay:10.37,2013-12-01 01:21:00,
2013-11-30 19:26:00,39.8,29.7,30.13,SSW,207,9.2,9.2,67,0.00,CLR,,0.00,0.0,WeatherDisplay:10.37,2013-12-01 01:26:00,
2013-11-30 19:31:00,39.8,29.7,30.13,SSW,202,9.2,9.2,67,0.00,CLR,,0.00,0.0,WeatherDisplay:10.37,2013-12-01 01:31:00,
2013-11-30 19:36:00,39.5,29.8,30.13,SSW,193,5.8,5.8,68,0.00,CLR,,0.00,0.0,WeatherDisplay:10.37,2013-12-01 01:36:00,
2013-11-30 19:41:00,39.3,30.0,30.13,SSW,206,6.9,6.9,69,0.00,CLR,,0.00,0.0,WeatherDisplay:10.37,2013-12-01 01:41:00,
2013-11-30 19:43:00,39.2,29.9,30.13,SSW,211,5.8,5.8,69,0.00,CLR,,0.00,0.0,WeatherDisplay:10.37,2013-12-01 01:43:00,
2013-11-30 19:48:00,39.0,29.7,30.12,SSW,192,6.9,6.9,69,0.00,CLR,,0.00,0.0,WeatherDisplay:10.37,2013-12-01 01:48:00,
2013-11-30 19:53:00,39.0,29.7,30.12,WSW,244,6.9,6.9,69,0.00,CLR,,0.00,0.0,WeatherDisplay:10.37,2013-12-01 01:53:00,
2013-11-30 19:58:00,39.1,29.8,30.12,SW,219,6.9,6.9,69,0.00,CLR,,0.00,0.0,WeatherDisplay:10.37,2013-12-01 01:58:00,
2013-11-30 20:03:00,39.0,30.0,30.11,SSW,205,9.2,9.2,70,0.00,CLR,,0.00,0.0,WeatherDisplay:10.37,2013-12-01 02:03:00,
2013-11-30 20:08:00,39.1,30.1,30.12,SSW,208,6.9,6.9,70,0.00,CLR,,0.00,0.0,WeatherDisplay:10.37,2013-12-01 02:08:00,
2013-11-30 20:12:00,39.2,30.2,30.11,SSW,197,10.4,10.4,70,0.00,CLR,,0.00,0.0,WeatherDisplay:10.37,2013-12-01 02:12:00,
2013-11-30 20:13:00,39.2,30.2,30.11,SSW,197,10.4,10.4,70,0.00,CLR,,0.00,0.0,WeatherDisplay:10.37,2013-12-01 02:13:00,
2013-11-30 20:18:00,39.2,30.2,30.11,SSW,197,10.4,10.4,70,0.00,CLR,,0.00,0.0,WeatherDisplay:10.37,2013-12-01 02:18:00,
2013-11-30 20:33:00,39.3,30.3,30.11,SSW,202,10.4,10.4,70,0.00,CLR,,0.00,0.0,WeatherDisplay:10.37,2013-12-01 02:33:00,
2013-11-30 20:38:00,38.9,29.9,30.11,South,186,6.9,6.9,70,0.00,CLR,,0.00,0.0,WeatherDisplay:10.37,2013-12-01 02:38:00,
2013-11-30 20:43:00,38.7,30.1,30.11,SSW,211,6.9,6.9,71,0.00,CLR,,0.00,0.0,WeatherDisplay:10.37,2013-12-01 02:43:00,
2013-11-30 20:48:00,38.4,29.8,30.12,SSW,203,5.8,5.8,71,0.00,CLR,,0.00,0.0,WeatherDisplay:10.37,2013-12-01 02:48:00,
2013-11-30 20:53:00,38.1,29.9,30.11,South,185,4.6,4.6,72,0.00,CLR,,0.00,0.0,WeatherDisplay:10.37,2013-12-01 02:53:00,
2013-11-30 20:58:00,37.5,29.3,30.11,South,175,4.6,4.6,72,0.00,CLR,,0.00,0.0,WeatherDisplay:10.37,2013-12-01 02:58:00,
2013-11-30 21:03:00,36.5,28.7,30.11,SSW,192,4.0,4.0,73,0.00,CLR,,0.00,0.0,WeatherDisplay:10.37,2013-12-01 03:03:00,
2013-11-30 21:08:00,36.0,29.2,30.11,SSW,205,5.8,5.8,76,0.00,CLR,,0.00,0.0,WeatherDisplay:10.37,2013-12-01 03:08:00,
2013-11-30 21:15:00,36.3,29.5,30.11,South,190,6.0,6.0,76,0.00,CLR,,0.00,0.0,WeatherDisplay:10.37,2013-12-01 03:15:00,
2013-11-30 21:20:00,36.2,29.0,30.11,SSW,198,3.5,3.5,75,0.00,CLR,,0.00,0.0,WeatherDisplay:10.37,2013-12-01 03:20:00,
2013-11-30 21:25:00,36.5,29.3,30.11,South,180,5.8,5.8,75,0.00,CLR,,0.00,0.0,WeatherDisplay:10.37,2013-12-01 03:25:00,
2013-11-30 21:30:00,36.6,29.4,30.11,SSW,206,5.8,5.8,75,0.00,CLR,,0.00,0.0,WeatherDisplay:10.37,2013-12-01 03:30:00,
2013-11-30 21:35:00,36.8,29.6,30.10,SSW,211,6.9,6.9,75,0.00,CLR,,0.00,0.0,WeatherDisplay:10.37,2013-12-01 03:35:00,
2013-11-30 21:40:00,36.9,29.7,30.11,SSW,207,5.8,5.8,75,0.00,CLR,,0.00,0.0,WeatherDisplay:10.37,2013-12-01 03:40:00,
2013-11-30 21:45:00,37.1,29.9,30.10,SSW,197,6.9,6.9,75,0.00,CLR,,0.00,0.0,WeatherDisplay:10.37,2013-12-01 03:45:00,
2013-11-30 21:50:00,37.0,29.5,30.11,South,188,4.6,4.6,74,0.00,CLR,,0.00,0.0,WeatherDisplay:10.37,2013-12-01 03:50:00,
2013-11-30 21:55:00,36.8,29.6,30.10,SSW,199,5.8,5.8,75,0.00,CLR,,0.00,0.0,WeatherDisplay:10.37,2013-12-01 03:55:00,
2013-11-30 22:00:00,36.6,29.4,30.11,SSW,201,4.6,4.6,75,0.00,CLR,,0.00,0.0,WeatherDisplay:10.37,2013-12-01 04:00:00,
2013-11-30 22:05:00,36.4,29.6,30.11,South,188,5.8,5.8,76,0.00,CLR,,0.00,0.0,WeatherDisplay:10.37,2013-12-01 04:05:00,
2013-11-30 22:10:00,36.4,29.6,30.10,South,187,6.9,6.9,76,0.00,CLR,,0.00,0.0,WeatherDisplay:10.37,2013-12-01 04:10:00,
2013-11-30 22:15:00,36.4,29.6,30.10,SSW,208,6.9,6.9,76,0.00,CLR,,0.00,0.0,WeatherDisplay:10.37,2013-12-01 04:15:00,
2013-11-30 22:20:00,36.4,29.6,30.10,SSW,209,6.9,6.9,76,0.00,CLR,,0.00,0.0,WeatherDisplay:10.37,2013-12-01 04:20:00,
2013-11-30 22:25:00,36.3,29.5,30.10,SSW,197,6.9,6.9,76,0.00,CLR,,0.00,0.0,WeatherDisplay:10.37,2013-12-01 04:25:00,
2013-11-30 22:30:00,36.1,29.3,30.10,SSW,193,4.6,4.6,76,0.00,CLR,,0.00,0.0,WeatherDisplay:10.37,2013-12-01 04:30:00,
2013-11-30 22:35:00,35.7,28.9,30.10,SSW,211,3.5,3.5,76,0.00,CLR,,0.00,0.0,WeatherDisplay:10.37,2013-12-01 04:35:00,
2013-11-30 22:40:00,35.5,29.0,30.10,SSW,196,4.6,4.6,77,0.00,CLR,,0.00,0.0,WeatherDisplay:10.37,2013-12-01 04:40:00,
2013-11-30 22:45:00,35.3,28.8,30.10,SSW,211,3.5,3.5,77,0.00,CLR,,0.00,0.0,WeatherDisplay:10.37,2013-12-01 04:45:00,
2013-11-30 22:50:00,35.1,28.9,30.10,SW,216,3.5,3.5,78,0.00,CLR,,0.00,0.0,WeatherDisplay:10.37,2013-12-01 04:50:00,
2013-11-30 22:55:00,34.9,28.7,30.10,SW,217,5.8,5.8,78,0.00,CLR,,0.00,0.0,WeatherDisplay:10.37,2013-12-01 04:55:00,
2013-11-30 23:00:00,35.0,28.8,30.10,SSW,198,6.9,6.9,78,0.00,CLR,,0.00,0.0,WeatherDisplay:10.37,2013-12-01 05:00:00,
2013-11-30 23:01:00,35.1,28.9,30.10,SSW,209,6.9,6.9,78,0.00,CLR,,0.00,0.0,WeatherDisplay:10.37,2013-12-01 05:01:00,
2013-11-30 23:06:00,35.1,28.9,30.10,SW,216,5.8,5.8,78,0.00,CLR,,0.00,0.0,WeatherDisplay:10.37,2013-12-01 05:06:00,
2013-11-30 23:11:00,35.0,28.8,30.10,SSW,192,5.0,5.0,78,0.00,CLR,,0.00,0.0,WeatherDisplay:10.37,2013-12-01 05:11:00,
2013-11-30 23:16:00,34.9,28.7,30.10,SSW,196,5.0,5.0,78,0.00,CLR,,0.00,0.0,WeatherDisplay:10.37,2013-12-01 05:16:00,
2013-11-30 23:21:00,34.7,28.5,30.10,SW,215,5.8,5.8,78,0.00,CLR,,0.00,0.0,WeatherDisplay:10.37,2013-12-01 05:21:00,
2013-11-30 23:26:00,34.6,28.8,30.10,SSW,211,5.8,5.8,79,0.00,CLR,,0.00,0.0,WeatherDisplay:10.37,2013-12-01 05:26:00,
2013-11-30 23:31:00,34.6,28.8,30.10,SSW,205,5.8,5.8,79,0.00,CLR,,0.00,0.0,WeatherDisplay:10.37,2013-12-01 05:31:00,
2013-11-30 23:36:00,34.4,28.6,30.10,SSW,211,5.0,5.0,79,0.00,CLR,,0.00,0.0,WeatherDisplay:10.37,2013-12-01 05:36:00,
2013-11-30 23:41:00,34.3,28.5,30.09,SSW,206,4.6,4.6,79,0.00,CLR,,0.00,0.0,WeatherDisplay:10.37,2013-12-01 05:41:00,
2013-11-30 23:46:00,34.1,28.3,30.10,South,188,4.0,4.0,79,0.00,CLR,,0.00,0.0,WeatherDisplay:10.37,2013-12-01 05:46:00,
2013-11-30 23:51:00,33.7,27.9,30.09,SSW,198,3.5,3.5,79,0.00,CLR,,0.00,0.0,WeatherDisplay:10.37,2013-12-01 05:51:00,
2013-11-30 23:56:00,33.1,27.3,30.09,South,190,4.0,4.0,79,0.00,CLR,,0.00,0.0,WeatherDisplay:10.37,2013-12-01 05:56:00,